Time;durP1;ratioP1;P1;durP2;ratioP2;P2;SDS_P1;SDS_P2;PMS_P1;PMS_P2;Temp;Humidity;BMP_temperature;BMP_pressure;BME280_temperature;BME280_humidity;BME280_pressure;Samples;Min_cycle;Max_cycle;Signal;HPM_P1;HPM_P2
2022/12/31 00:01:34;;;;;;;1.70;1.60;;;11.20;99.90;;;;;;5017544;28;20201;-75
2022/12/31 00:04:00;;;;;;;2.00;1.60;;;11.20;99.90;;;;;;5034912;28;20171;-75
2022/12/31 00:06:33;;;;;;;1.73;1.63;;;11.20;99.90;;;;;;5017735;28;20201;-75
2022/12/31 00:09:03;;;;;;;2.50;1.60;;;11.30;99.90;;;;;;5017675;28;20174;-75
2022/12/31 00:11:29;;;;;;;2.97;1.70;;;11.40;99.90;;;;;;5016603;28;20201;-75
2022/12/31 00:13:56;;;;;;;1.50;1.40;;;11.40;99.90;;;;;;5034680;28;20236;-74
2022/12/31 00:16:28;;;;;;;1.93;1.53;;;11.40;99.90;;;;;;5059352;22;20226;-82
2022/12/31 00:18:57;;;;;;;1.60;1.43;;;11.40;99.90;;;;;;5018134;28;20170;-82
2022/12/31 00:21:24;;;;;;;1.60;1.50;;;11.40;99.90;;;;;;5017648;28;20206;-82
2022/12/31 00:23:50;;;;;;;1.60;1.40;;;11.40;99.90;;;;;;5017333;28;20174;-82
2022/12/31 00:26:19;;;;;;;1.60;1.20;;;11.40;99.90;;;;;;5034395;28;20197;-81
2022/12/31 00:28:46;;;;;;;1.67;1.30;;;11.50;99.90;;;;;;5035428;28;20187;-82
2022/12/31 00:31:20;;;;;;;1.60;1.50;;;11.50;99.90;;;;;;5035389;28;20170;-79
2022/12/31 00:33:46;;;;;;;1.30;1.20;;;11.50;99.90;;;;;;5017056;28;20170;-82
2022/12/31 00:36:23;;;;;;;1.40;1.30;;;11.60;99.90;;;;;;5017344;28;20205;-83
2022/12/31 00:38:50;;;;;;;1.17;1.07;;;11.60;99.90;;;;;;5035750;28;20644;-82
2022/12/31 00:41:17;;;;;;;1.83;1.20;;;11.60;99.90;;;;;;5017781;28;20224;-82
2022/12/31 00:43:44;;;;;;;1.10;1.00;;;11.50;99.90;;;;;;5034827;28;20206;-82
2022/12/31 00:46:10;;;;;;;1.33;1.20;;;11.60;99.90;;;;;;5035107;28;20571;-82
2022/12/31 00:48:36;;;;;;;1.73;1.10;;;11.70;99.90;;;;;;5017215;28;20174;-82
2022/12/31 00:51:05;;;;;;;1.23;1.13;;;11.80;99.90;;;;;;5017636;28;20181;-82
2022/12/31 00:53:31;;;;;;;1.40;1.20;;;11.80;99.90;;;;;;5016910;28;20174;-82
2022/12/31 00:56:11;;;;;;;1.57;1.10;;;11.80;99.90;;;;;;5035293;28;20224;-81
2022/12/31 00:58:37;;;;;;;1.13;1.03;;;11.80;99.90;;;;;;5034803;28;20174;-82
2022/12/31 01:01:20;;;;;;;1.90;1.10;;;11.90;99.90;;;;;;5034570;28;20201;-82
2022/12/31 01:03:48;;;;;;;1.33;1.10;;;11.90;99.90;;;;;;5016866;28;20185;-82
2022/12/31 01:06:14;;;;;;;1.20;1.10;;;11.90;99.90;;;;;;5034651;28;20205;-82
2022/12/31 01:08:39;;;;;;;1.20;1.00;;;11.90;99.90;;;;;;5016835;28;20171;-82
2022/12/31 01:11:18;;;;;;;1.30;0.97;;;11.90;99.90;;;;;;5034748;28;20186;-82
2022/12/31 01:13:48;;;;;;;1.10;1.00;;;11.90;99.90;;;;;;5016419;28;20170;-82
2022/12/31 01:16:16;;;;;;;1.00;1.00;;;11.90;99.90;;;;;;5016589;28;20209;-82
2022/12/31 01:18:41;;;;;;;1.20;1.10;;;11.90;99.90;;;;;;5016820;28;20177;-82
2022/12/31 01:21:09;;;;;;;1.10;1.00;;;12.00;99.90;;;;;;5016323;28;20201;-82
2022/12/31 01:23:35;;;;;;;1.63;1.27;;;12.00;99.90;;;;;;5016304;28;20336;-82
2022/12/31 01:26:04;;;;;;;1.53;1.10;;;12.00;99.90;;;;;;5015023;28;20758;-82
2022/12/31 01:28:30;;;;;;;1.20;1.10;;;12.00;99.90;;;;;;5034372;28;20634;-81
2022/12/31 01:30:56;;;;;;;1.93;1.00;;;12.00;99.90;;;;;;5034150;28;20178;-81
2022/12/31 01:33:22;;;;;;;1.43;1.10;;;12.00;99.90;;;;;;5016101;28;20174;-83
2022/12/31 01:35:48;;;;;;;1.27;1.10;;;11.90;99.90;;;;;;5034153;28;20190;-83
2022/12/31 01:38:14;;;;;;;1.30;1.10;;;11.90;99.90;;;;;;5034116;28;20184;-81
2022/12/31 01:40:41;;;;;;;1.27;1.17;;;11.80;99.90;;;;;;5016562;28;20210;-83
2022/12/31 01:43:19;;;;;;;1.30;1.00;;;11.80;99.90;;;;;;5033669;28;20172;-82
2022/12/31 01:45:52;;;;;;;1.30;1.20;;;11.80;99.90;;;;;;5034518;28;20190;-81
2022/12/31 01:48:23;;;;;;;1.30;1.20;;;11.90;99.90;;;;;;5016382;28;20545;-82
2022/12/31 01:50:49;;;;;;;1.20;1.10;;;11.90;99.90;;;;;;5016358;28;20182;-81
2022/12/31 01:53:17;;;;;;;1.23;1.10;;;11.90;99.90;;;;;;5015776;28;20210;-82
2022/12/31 01:55:52;;;;;;;1.50;1.30;;;12.00;99.90;;;;;;5015447;28;20229;-82
2022/12/31 01:58:28;;;;;;;1.10;1.00;;;11.90;99.90;;;;;;5015714;28;20177;-82
2022/12/31 02:00:56;;;;;;;1.20;1.10;;;11.90;99.90;;;;;;5015278;28;20647;-83
2022/12/31 02:03:22;;;;;;;1.07;0.97;;;11.90;99.90;;;;;;5014834;28;20167;-82
2022/12/31 02:06:03;;;;;;;0.93;0.90;;;11.90;99.90;;;;;;5033034;28;20614;-83
2022/12/31 02:08:29;;;;;;;1.10;1.00;;;11.90;99.90;;;;;;5015391;28;20174;-82
2022/12/31 02:10:55;;;;;;;1.13;1.03;;;11.90;99.90;;;;;;5015339;28;20183;-83
2022/12/31 02:13:20;;;;;;;0.93;0.93;;;11.90;99.90;;;;;;5014814;28;20225;-83
2022/12/31 02:16:04;;;;;;;1.00;0.93;;;11.90;99.90;;;;;;5014891;28;20210;-83
2022/12/31 02:18:51;;;;;;;1.20;1.10;;;11.90;99.90;;;;;;5032940;28;20184;-82
2022/12/31 02:21:50;;;;;;;2.03;1.10;;;12.00;99.90;;;;;;5014922;28;20259;-82
2022/12/31 02:24:54;;;;;;;1.73;1.20;;;12.00;99.90;;;;;;5014552;28;20170;-82
2022/12/31 02:27:44;;;;;;;1.50;1.17;;;12.00;99.90;;;;;;5031410;28;20193;-82
2022/12/31 02:30:22;;;;;;;1.03;0.93;;;12.00;99.90;;;;;;5015329;28;20174;-81
2022/12/31 02:33:03;;;;;;;0.93;0.90;;;12.00;99.90;;;;;;5031762;28;20197;-82
2022/12/31 02:35:40;;;;;;;2.30;1.00;;;12.10;99.90;;;;;;5014744;28;20181;-82
2022/12/31 02:38:21;;;;;;;1.40;1.10;;;12.00;99.90;;;;;;5015000;28;20185;-82
2022/12/31 02:40:48;;;;;;;1.20;1.10;;;12.10;99.90;;;;;;5014848;28;20688;-83
2022/12/31 02:43:13;;;;;;;1.10;1.00;;;12.10;99.90;;;;;;5014512;28;20220;-82
2022/12/31 02:45:47;;;;;;;0.90;0.90;;;12.20;99.90;;;;;;5032400;28;20257;-83
2022/12/31 02:48:27;;;;;;;1.60;0.90;;;12.20;99.90;;;;;;5014885;28;20553;-82
2022/12/31 02:51:11;;;;;;;1.10;1.00;;;12.30;99.90;;;;;;5014729;28;20231;-84
2022/12/31 02:54:10;;;;;;;0.90;0.90;;;12.30;99.90;;;;;;5014319;28;20271;-83
2022/12/31 02:57:02;;;;;;;0.90;0.90;;;12.40;99.90;;;;;;5014735;28;20198;-83
2022/12/31 03:02:42;;;;;;;0.90;0.90;;;12.50;99.90;;;;;;5027002;28;20216;-83
2022/12/31 03:05:10;;;;;;;0.90;0.90;;;12.60;99.90;;;;;;5014487;28;20552;-83
2022/12/31 03:07:35;;;;;;;1.80;1.00;;;12.60;99.90;;;;;;5014228;28;20225;-83
2022/12/31 03:10:01;;;;;;;1.00;0.90;;;12.60;99.90;;;;;;5032187;28;20217;-83
2022/12/31 03:12:47;;;;;;;1.03;0.90;;;12.70;99.90;;;;;;5014086;28;20208;-82
2022/12/31 03:15:21;;;;;;;1.60;0.93;;;12.70;99.90;;;;;;5032135;28;20245;-83
2022/12/31 03:17:58;;;;;;;1.47;1.10;;;12.70;99.90;;;;;;5014204;28;20208;-82
2022/12/31 03:23:13;;;;;;;1.50;0.80;;;12.60;99.90;;;;;;5031703;28;20205;-83
2022/12/31 03:25:39;;;;;;;0.90;0.80;;;12.60;99.90;;;;;;5013950;28;20170;-82
2022/12/31 03:28:10;;;;;;;0.80;0.80;;;12.70;99.90;;;;;;5013855;28;20174;-83
2022/12/31 03:30:41;;;;;;;5.33;1.10;;;12.70;99.90;;;;;;5014830;28;20178;-83
2022/12/31 03:33:08;;;;;;;1.10;0.90;;;12.70;99.90;;;;;;5013934;28;20202;-83
2022/12/31 03:35:36;;;;;;;1.73;1.10;;;12.70;99.90;;;;;;5014361;28;20186;-83
2022/12/31 03:38:03;;;;;;;0.80;0.80;;;12.70;99.90;;;;;;5032034;28;20181;-82
2022/12/31 03:40:30;;;;;;;1.27;1.00;;;12.80;99.90;;;;;;5031926;28;20197;-83
2022/12/31 03:42:56;;;;;;;1.20;0.93;;;12.90;99.90;;;;;;5013679;28;20171;-83
2022/12/31 03:45:22;;;;;;;1.33;0.90;;;12.90;99.90;;;;;;5032703;28;20174;-82
2022/12/31 03:47:48;;;;;;;1.17;1.07;;;13.00;99.90;;;;;;5035704;28;20266;-83
2022/12/31 03:50:15;;;;;;;1.97;1.10;;;13.00;99.90;;;;;;5035675;28;20195;-84
2022/12/31 03:52:41;;;;;;;1.00;0.90;;;12.90;99.90;;;;;;5034979;28;20583;-82
2022/12/31 03:55:08;;;;;;;2.33;1.17;;;12.90;99.90;;;;;;5035490;28;20706;-83
2022/12/31 03:57:34;;;;;;;1.60;1.10;;;12.80;99.90;;;;;;5017663;28;20233;-83
2022/12/31 04:00:00;;;;;;;1.33;1.00;;;12.80;99.90;;;;;;5017662;28;20205;-83
2022/12/31 04:02:25;;;;;;;1.40;1.10;;;12.80;99.90;;;;;;5017308;28;20181;-83
2022/12/31 04:04:51;;;;;;;1.53;1.00;;;12.80;99.90;;;;;;5035311;28;20311;-83
2022/12/31 04:07:16;;;;;;;1.20;1.10;;;12.80;99.90;;;;;;5017410;28;20222;-82
2022/12/31 04:09:42;;;;;;;2.37;1.10;;;12.90;99.90;;;;;;5035476;28;20171;-83
2022/12/31 04:12:07;;;;;;;1.20;1.10;;;12.80;99.90;;;;;;5017136;28;20178;-81
2022/12/31 04:14:33;;;;;;;1.37;1.10;;;12.90;99.90;;;;;;5017026;28;20170;-83
2022/12/31 04:16:59;;;;;;;1.93;1.10;;;12.90;99.90;;;;;;5017302;28;20202;-83
2022/12/31 04:19:24;;;;;;;2.40;1.13;;;13.00;99.90;;;;;;5035120;28;20166;-82
2022/12/31 04:21:50;;;;;;;1.43;1.27;;;13.00;99.90;;;;;;5017033;28;20202;-83
2022/12/31 04:24:15;;;;;;;2.70;1.13;;;12.90;99.90;;;;;;5034531;28;20174;-83
2022/12/31 04:26:42;;;;;;;1.50;1.10;;;12.90;99.90;;;;;;5016242;28;20289;-83
2022/12/31 04:29:08;;;;;;;2.43;1.10;;;12.90;99.90;;;;;;5017101;28;20174;-83
2022/12/31 04:31:34;;;;;;;2.10;1.77;;;12.90;99.90;;;;;;5034893;28;20175;-83
2022/12/31 04:34:00;;;;;;;2.00;1.43;;;12.90;99.90;;;;;;5034385;28;20174;-83
2022/12/31 04:36:25;;;;;;;1.07;1.07;;;12.90;99.90;;;;;;5016923;28;20212;-83
2022/12/31 04:38:51;;;;;;;1.53;1.20;;;12.90;99.90;;;;;;5017122;28;20184;-83
2022/12/31 04:41:16;;;;;;;2.10;0.97;;;12.90;99.90;;;;;;5016895;28;20242;-83
2022/12/31 04:43:50;;;;;;;1.93;1.33;;;12.90;99.90;;;;;;5016585;28;20175;-83
2022/12/31 04:46:18;;;;;;;1.17;1.07;;;12.90;99.90;;;;;;5034740;28;20194;-83
2022/12/31 04:48:44;;;;;;;1.63;1.10;;;12.90;99.90;;;;;;5034242;28;20645;-84
2022/12/31 04:51:10;;;;;;;1.83;1.10;;;13.00;99.90;;;;;;5034492;28;20201;-83
2022/12/31 04:53:35;;;;;;;1.40;1.20;;;13.00;99.90;;;;;;5034155;28;20599;-83
2022/12/31 04:56:01;;;;;;;1.10;0.93;;;12.90;99.90;;;;;;5033972;28;20229;-83
2022/12/31 04:58:27;;;;;;;1.67;1.17;;;13.00;99.90;;;;;;5034093;28;20583;-82
2022/12/31 05:00:54;;;;;;;1.80;1.10;;;13.00;99.90;;;;;;5034190;28;20590;-84
2022/12/31 05:03:20;;;;;;;1.30;1.10;;;13.00;99.90;;;;;;5015950;28;20224;-82
2022/12/31 05:05:46;;;;;;;1.23;1.13;;;13.00;99.90;;;;;;5016108;28;20215;-83
2022/12/31 05:08:12;;;;;;;1.30;1.10;;;13.00;99.90;;;;;;5016479;28;20261;-83
2022/12/31 05:10:43;;;;;;;1.37;1.00;;;13.00;99.90;;;;;;5016374;28;20181;-83
2022/12/31 05:13:09;;;;;;;1.10;1.00;;;13.00;99.90;;;;;;5015819;28;20273;-84
2022/12/31 05:15:35;;;;;;;3.07;1.40;;;13.00;99.90;;;;;;5016093;28;20201;-83
2022/12/31 05:18:01;;;;;;;1.73;1.10;;;13.00;99.90;;;;;;5033871;28;20208;-83
2022/12/31 05:20:27;;;;;;;1.23;1.10;;;13.10;99.90;;;;;;5033859;28;20198;-83
2022/12/31 05:22:52;;;;;;;1.10;1.03;;;13.10;99.90;;;;;;5015434;28;20178;-83
2022/12/31 05:25:18;;;;;;;1.97;1.07;;;13.00;99.90;;;;;;5033858;28;20308;-83
2022/12/31 05:27:44;;;;;;;1.53;1.30;;;13.10;99.90;;;;;;5032484;28;20194;-83
2022/12/31 05:30:10;;;;;;;1.97;1.10;;;13.10;99.90;;;;;;5033576;28;20178;-84
2022/12/31 05:32:36;;;;;;;1.40;1.10;;;13.10;99.90;;;;;;5033068;28;20182;-83
2022/12/31 05:35:02;;;;;;;1.60;1.20;;;13.10;99.90;;;;;;5033324;28;20177;-83
2022/12/31 05:37:28;;;;;;;1.10;1.00;;;13.10;99.90;;;;;;5033295;28;20201;-83
2022/12/31 05:39:54;;;;;;;2.40;1.20;;;13.10;99.90;;;;;;5015643;28;20185;-84
2022/12/31 05:42:20;;;;;;;1.40;1.07;;;13.10;99.90;;;;;;5033140;28;20226;-83
2022/12/31 05:44:46;;;;;;;1.13;1.00;;;13.20;99.90;;;;;;5015476;28;20655;-82
2022/12/31 05:47:12;;;;;;;1.53;1.10;;;13.20;99.90;;;;;;5015619;28;20195;-83
2022/12/31 05:49:37;;;;;;;1.23;1.10;;;13.20;99.90;;;;;;5015672;28;20180;-83
2022/12/31 05:52:03;;;;;;;2.20;1.13;;;13.10;99.90;;;;;;5015634;28;20179;-83
2022/12/31 05:54:28;;;;;;;1.73;1.40;;;13.10;99.90;;;;;;5032906;28;20641;-83
2022/12/31 05:56:54;;;;;;;2.57;1.10;;;13.20;99.90;;;;;;5015452;28;20236;-82
2022/12/31 05:59:20;;;;;;;1.67;1.23;;;13.20;99.90;;;;;;5015539;28;20268;-83
2022/12/31 06:01:45;;;;;;;1.73;1.40;;;13.20;99.90;;;;;;5033139;28;20202;-83
2022/12/31 06:04:11;;;;;;;1.27;1.17;;;13.30;99.90;;;;;;5032731;28;20205;-83
2022/12/31 06:06:36;;;;;;;1.97;1.17;;;13.30;99.90;;;;;;5032846;28;20222;-83
2022/12/31 06:09:02;;;;;;;1.53;1.00;;;13.40;99.90;;;;;;5032413;28;20182;-84
2022/12/31 06:11:28;;;;;;;2.53;1.20;;;13.40;99.90;;;;;;5033304;28;20182;-82
2022/12/31 06:13:54;;;;;;;3.23;1.33;;;13.40;99.90;;;;;;5014703;28;20235;-82
2022/12/31 06:16:19;;;;;;;1.83;1.10;;;13.40;99.90;;;;;;5039056;22;20293;-74
2022/12/31 06:18:49;;;;;;;1.43;1.20;;;13.40;99.90;;;;;;5014657;28;20178;-75
2022/12/31 06:21:18;;;;;;;2.03;1.20;;;13.40;99.90;;;;;;5014809;28;20198;-75
2022/12/31 06:23:44;;;;;;;2.80;1.10;;;13.50;99.90;;;;;;5031759;28;20190;-75
2022/12/31 06:26:09;;;;;;;1.93;1.17;;;13.60;99.90;;;;;;5013881;28;20280;-75
2022/12/31 06:28:35;;;;;;;1.53;1.10;;;13.60;99.90;;;;;;5014575;28;20224;-75
2022/12/31 06:31:07;;;;;;;1.53;1.10;;;13.60;99.90;;;;;;5014600;28;20182;-75
2022/12/31 06:33:33;;;;;;;2.07;1.20;;;13.60;99.90;;;;;;5014018;28;20201;-76
2022/12/31 06:36:01;;;;;;;3.63;1.37;;;13.60;99.90;;;;;;5014421;28;20174;-75
2022/12/31 06:38:28;;;;;;;1.20;1.10;;;13.60;99.90;;;;;;5032178;28;20204;-76
2022/12/31 06:40:54;;;;;;;1.23;1.13;;;13.50;99.90;;;;;;5014702;28;20206;-75
2022/12/31 06:43:20;;;;;;;1.43;1.30;;;13.60;99.90;;;;;;5031594;28;20171;-75
2022/12/31 06:45:46;;;;;;;1.10;1.00;;;13.60;99.90;;;;;;5014576;28;20209;-76
2022/12/31 06:48:11;;;;;;;2.43;1.30;;;13.60;99.90;;;;;;5014378;28;20194;-77
2022/12/31 06:50:38;;;;;;;1.93;1.30;;;13.60;99.90;;;;;;5014258;28;20243;-77
2022/12/31 06:53:03;;;;;;;1.87;1.07;;;13.60;99.90;;;;;;5031725;28;20190;-76
2022/12/31 06:55:29;;;;;;;1.80;1.00;;;13.60;99.90;;;;;;5032072;28;20213;-77
2022/12/31 06:57:55;;;;;;;1.20;1.10;;;13.70;99.90;;;;;;5014208;28;20305;-77
2022/12/31 07:00:21;;;;;;;1.90;1.30;;;13.70;99.90;;;;;;5014171;28;20653;-77
2022/12/31 07:03:01;;;;;;;5.00;3.37;;;13.60;99.90;;;;;;5031351;28;20182;-75
2022/12/31 07:05:35;;;;;;;2.03;1.27;;;13.70;99.90;;;;;;5031751;28;20209;-77
2022/12/31 07:08:05;;;;;;;1.50;1.20;;;13.80;99.90;;;;;;5014090;28;20194;-76
2022/12/31 07:10:47;;;;;;;1.80;1.20;;;13.80;99.90;;;;;;5014459;28;20181;-79
2022/12/31 07:13:50;;;;;;;1.90;1.40;;;13.80;99.90;;;;;;5031384;28;20645;-77
2022/12/31 07:16:27;;;;;;;2.73;1.10;;;13.70;99.90;;;;;;5013841;28;20194;-77
2022/12/31 07:18:56;;;;;;;1.97;1.27;;;13.70;99.90;;;;;;5013820;28;20174;-78
2022/12/31 07:21:38;;;;;;;1.60;1.27;;;13.80;99.90;;;;;;5017953;28;20316;-77
2022/12/31 07:24:08;;;;;;;2.90;1.30;;;13.80;99.90;;;;;;5035020;28;20185;-75
2022/12/31 07:26:40;;;;;;;2.90;1.20;;;13.80;99.90;;;;;;5017879;28;20292;-75
2022/12/31 07:29:17;;;;;;;1.53;1.10;;;13.70;99.90;;;;;;5035755;28;20181;-75
2022/12/31 07:31:57;;;;;;;1.10;1.00;;;13.80;99.90;;;;;;5034635;28;20186;-76
2022/12/31 07:34:44;;;;;;;1.43;1.20;;;13.90;99.90;;;;;;5014186;28;20178;-72
2022/12/31 07:37:32;;;;;;;1.90;1.50;;;13.90;99.90;;;;;;5001310;28;20198;-75
2022/12/31 07:40:01;;;;;;;1.87;1.30;;;13.90;99.90;;;;;;5033041;28;20202;-75
2022/12/31 07:42:31;;;;;;;2.43;1.40;;;13.90;99.90;;;;;;5032750;28;20182;-76
2022/12/31 07:45:29;;;;;;;1.87;1.10;;;13.90;99.90;;;;;;5033512;28;20261;-76
2022/12/31 07:47:55;;;;;;;1.33;1.23;;;13.90;99.90;;;;;;5004700;28;20234;-75
2022/12/31 07:50:21;;;;;;;4.53;1.50;;;14.00;99.90;;;;;;5015667;28;20206;-75
2022/12/31 07:52:47;;;;;;;2.20;1.20;;;14.00;99.90;;;;;;5031588;28;20645;-75
2022/12/31 07:55:12;;;;;;;1.73;1.00;;;14.00;99.90;;;;;;5017427;28;20231;-75
2022/12/31 07:57:59;;;;;;;2.47;1.20;;;14.00;99.90;;;;;;5017618;28;20198;-76
2022/12/31 08:00:27;;;;;;;1.27;1.17;;;14.00;99.90;;;;;;5017220;28;20210;-76
2022/12/31 08:02:59;;;;;;;2.47;1.40;;;14.10;99.90;;;;;;5016587;28;20178;-75
2022/12/31 08:05:34;;;;;;;1.60;1.10;;;14.10;99.90;;;;;;5017107;28;20201;-75
2022/12/31 08:08:21;;;;;;;1.20;1.10;;;14.10;99.90;;;;;;5017029;28;20276;-76
2022/12/31 08:10:59;;;;;;;1.30;1.10;;;14.10;99.90;;;;;;5035006;28;20181;-75
2022/12/31 08:13:26;;;;;;;1.77;1.20;;;14.10;99.90;;;;;;5016651;28;20182;-76
2022/12/31 08:15:51;;;;;;;1.80;1.10;;;14.10;99.90;;;;;;5017025;28;20178;-75
2022/12/31 08:18:17;;;;;;;1.90;1.03;;;14.10;99.90;;;;;;5034458;28;20676;-75
2022/12/31 08:21:13;;;;;;;1.30;1.20;;;14.20;99.90;;;;;;5016760;28;20209;-75
2022/12/31 08:23:53;;;;;;;1.20;1.10;;;14.20;99.90;;;;;;5025248;28;20187;-76
2022/12/31 08:26:34;;;;;;;1.87;1.47;;;14.10;99.90;;;;;;5016680;28;20191;-76
2022/12/31 08:29:49;;;;;;;1.53;1.10;;;14.00;99.90;;;;;;5034304;28;20186;-75
2022/12/31 08:32:39;;;;;;;1.50;1.03;;;14.10;99.90;;;;;;4978636;28;20253;-74
2022/12/31 08:35:21;;;;;;;1.20;1.07;;;14.00;99.90;;;;;;5034405;28;20174;-76
2022/12/31 08:37:56;;;;;;;1.20;1.10;;;14.10;99.90;;;;;;5034427;28;20194;-76
2022/12/31 08:40:43;;;;;;;1.37;0.90;;;14.20;99.90;;;;;;5034395;28;20206;-76
2022/12/31 08:43:31;;;;;;;1.20;1.10;;;14.20;99.90;;;;;;5033721;28;20211;-76
2022/12/31 08:45:58;;;;;;;1.57;1.40;;;14.10;99.90;;;;;;5016361;28;20234;-76
2022/12/31 08:48:42;;;;;;;1.20;1.10;;;14.20;99.90;;;;;;5034243;28;20227;-75
2022/12/31 08:51:16;;;;;;;1.23;1.10;;;14.30;99.90;;;;;;5033978;28;20661;-75
2022/12/31 08:53:42;;;;;;;1.43;1.00;;;14.20;99.90;;;;;;5014417;28;20177;-75
2022/12/31 08:56:20;;;;;;;2.20;1.27;;;14.20;99.90;;;;;;5034095;28;20201;-75
2022/12/31 08:59:00;;;;;;;2.20;1.30;;;14.20;99.90;;;;;;5016239;28;20178;-75
2022/12/31 09:01:34;;;;;;;1.73;1.20;;;14.30;99.90;;;;;;5016103;28;20198;-75
2022/12/31 09:04:37;;;;;;;2.00;1.00;;;14.40;99.90;;;;;;5033240;28;20167;-75
2022/12/31 09:07:03;;;;;;;1.20;1.10;;;14.40;99.90;;;;;;5015889;28;20615;-75
2022/12/31 09:10:03;;;;;;;1.33;1.20;;;14.30;99.90;;;;;;5016073;28;20174;-75
2022/12/31 09:12:50;;;;;;;1.73;1.20;;;14.30;99.90;;;;;;5001011;28;20236;-75
2022/12/31 09:15:24;;;;;;;2.53;1.27;;;14.30;99.90;;;;;;5033579;28;20240;-76
2022/12/31 09:17:51;;;;;;;1.67;1.20;;;14.40;99.90;;;;;;5015602;28;20260;-75
2022/12/31 09:20:28;;;;;;;1.10;1.00;;;14.40;99.90;;;;;;5033389;28;20175;-75
2022/12/31 09:22:55;;;;;;;1.30;1.10;;;14.40;99.90;;;;;;5032752;28;20544;-75
2022/12/31 09:25:22;;;;;;;1.30;1.20;;;14.50;99.90;;;;;;5033285;28;20165;-75
2022/12/31 09:28:03;;;;;;;1.90;1.30;;;14.50;99.90;;;;;;5033273;28;20194;-75
2022/12/31 09:30:41;;;;;;;2.17;1.20;;;14.50;99.90;;;;;;5033362;28;20174;-75
2022/12/31 09:33:22;;;;;;;2.20;1.37;;;14.50;99.90;;;;;;5032665;28;20171;-76
2022/12/31 09:35:48;;;;;;;2.17;1.20;;;14.50;99.90;;;;;;5033302;28;20189;-75
2022/12/31 09:38:53;;;;;;;2.23;1.40;;;14.50;99.90;;;;;;5015465;28;20194;-75
2022/12/31 09:41:42;;;;;;;1.63;1.03;;;14.50;99.90;;;;;;4982247;28;20221;-72
2022/12/31 09:44:34;;;;;;;1.17;1.00;;;14.50;99.90;;;;;;5031620;28;20165;-75
2022/12/31 09:47:19;;;;;;;2.20;1.30;;;14.50;99.90;;;;;;5032891;28;20190;-75
2022/12/31 09:50:21;;;;;;;1.37;1.23;;;14.50;99.90;;;;;;5032972;28;20175;-76
2022/12/31 09:52:47;;;;;;;2.27;1.40;;;14.50;99.90;;;;;;5030971;28;20170;-75
2022/12/31 09:55:44;;;;;;;3.47;1.50;;;14.50;99.90;;;;;;5032890;28;20547;-75
2022/12/31 09:58:35;;;;;;;1.80;1.20;;;14.50;99.90;;;;;;5015203;28;20194;-76
2022/12/31 10:01:28;;;;;;;2.63;1.30;;;14.50;99.90;;;;;;5004287;28;20304;-75
2022/12/31 10:03:57;;;;;;;1.33;1.20;;;14.50;99.90;;;;;;5014409;28;20182;-75
2022/12/31 10:06:44;;;;;;;1.60;1.30;;;14.50;99.90;;;;;;5014404;28;20217;-75
2022/12/31 10:09:39;;;;;;;2.13;1.30;;;14.50;99.90;;;;;;5033306;28;20269;-75
2022/12/31 10:12:52;;;;;;;1.27;1.17;;;14.40;99.90;;;;;;5015297;28;20233;-75
2022/12/31 10:15:37;;;;;;;1.80;1.20;;;14.40;99.90;;;;;;5032876;28;20163;-75
2022/12/31 10:18:33;;;;;;;1.97;1.20;;;14.50;99.90;;;;;;5012910;28;20218;-75
2022/12/31 10:21:49;;;;;;;1.63;1.10;;;14.50;99.90;;;;;;5011790;28;20202;-74
2022/12/31 10:24:54;;;;;;;1.90;1.27;;;14.60;99.90;;;;;;4991162;28;20287;-75
2022/12/31 10:27:49;;;;;;;1.93;1.40;;;14.60;99.90;;;;;;4976839;28;20207;-75
2022/12/31 10:30:17;;;;;;;3.70;1.30;;;14.60;99.90;;;;;;5048721;28;20178;-75
2022/12/31 10:33:05;;;;;;;1.67;1.30;;;14.60;99.90;;;;;;5052013;28;20174;-76
2022/12/31 10:35:47;;;;;;;2.87;1.07;;;14.60;99.90;;;;;;5033492;28;20181;-76
2022/12/31 10:38:55;;;;;;;1.67;1.33;;;14.70;99.90;;;;;;5052335;28;20197;-77
2022/12/31 10:41:24;;;;;;;3.07;1.53;;;14.70;99.90;;;;;;5014813;28;20224;-76
2022/12/31 10:44:20;;;;;;;2.97;1.37;;;14.70;99.90;;;;;;5034354;28;20635;-78
2022/12/31 10:47:24;;;;;;;1.63;1.43;;;14.60;99.90;;;;;;5052594;28;20207;-78
2022/12/31 10:50:26;;;;;;;3.37;1.70;;;14.60;99.90;;;;;;5037940;28;20193;-77
2022/12/31 10:53:26;;;;;;;6.67;3.23;;;14.70;99.90;;;;;;5034608;28;20161;-77
2022/12/31 10:55:59;;;;;;;5.70;2.90;;;14.80;99.90;;;;;;5003163;28;20186;-79
2022/12/31 10:58:44;;;;;;;1.23;1.13;;;14.90;99.90;;;;;;5035040;28;20166;-76
2022/12/31 11:01:10;;;;;;;1.70;1.20;;;15.10;99.90;;;;;;5034982;28;20215;-78
2022/12/31 11:04:10;;;;;;;2.07;1.30;;;15.20;99.90;;;;;;5034140;28;20227;-77
2022/12/31 11:06:50;;;;;;;2.30;1.30;;;15.30;99.90;;;;;;5052465;28;20224;-76
2022/12/31 11:09:43;;;;;;;1.80;1.60;;;15.50;99.90;;;;;;5052179;28;20170;-77
2022/12/31 11:12:27;;;;;;;1.97;1.77;;;15.50;99.90;;;;;;5052295;28;20188;-77
2022/12/31 11:15:14;;;;;;;2.57;1.50;;;15.60;99.90;;;;;;5034441;28;20234;-73
2022/12/31 11:17:49;;;;;;;4.67;2.70;;;15.70;99.90;;;;;;5034112;28;20220;-74
2022/12/31 11:20:33;;;;;;;1.77;1.57;;;15.70;99.90;;;;;;5052179;28;20260;-75
2022/12/31 11:23:29;;;;;;;4.07;3.70;;;15.70;99.90;;;;;;5051530;28;20174;-75
2022/12/31 11:26:01;;;;;;;3.00;1.67;;;15.80;99.90;;;;;;5034542;28;20180;-76
2022/12/31 11:29:01;;;;;;;3.00;2.47;;;15.70;99.90;;;;;;5034120;28;20193;-76
2022/12/31 11:32:13;;;;;;;1.77;1.50;;;15.80;99.90;;;;;;5052031;28;20150;-76
2022/12/31 11:34:58;;;;;;;2.03;1.30;;;15.90;99.90;;;;;;5015835;28;20190;-75
2022/12/31 11:37:40;;;;;;;1.70;1.20;;;15.90;99.90;;;;;;5033988;28;20190;-76
2022/12/31 11:40:43;;;;;;;1.20;1.10;;;15.90;99.90;;;;;;5034016;28;20182;-75
2022/12/31 11:43:38;;;;;;;3.53;1.40;;;15.90;99.90;;;;;;5033732;28;20180;-76
2022/12/31 11:46:22;;;;;;;1.67;1.20;;;16.10;99.90;;;;;;5034152;28;20215;-75
2022/12/31 11:49:12;;;;;;;1.70;1.23;;;15.90;99.90;;;;;;5051739;28;20641;-76
2022/12/31 11:51:54;;;;;;;1.37;1.20;;;15.90;99.90;;;;;;5034036;28;20658;-75
2022/12/31 11:54:52;;;;;;;2.83;1.40;;;15.80;99.90;;;;;;5033705;28;20170;-76
2022/12/31 11:57:23;;;;;;;1.40;1.10;;;15.70;99.90;;;;;;5033764;28;20600;-75
2022/12/31 11:59:56;;;;;;;2.00;1.30;;;15.60;99.90;;;;;;5052007;28;20166;-75
2022/12/31 12:02:34;;;;;;;2.63;1.50;;;15.50;99.90;;;;;;5051382;28;20248;-75
2022/12/31 12:05:03;;;;;;;1.70;1.20;;;15.40;99.90;;;;;;5033933;28;20557;-76
2022/12/31 12:07:31;;;;;;;1.30;1.20;;;15.40;99.90;;;;;;5053713;28;20570;-75
2022/12/31 12:10:00;;;;;;;1.93;1.30;;;15.40;99.90;;;;;;5055127;28;20233;-75
2022/12/31 12:12:40;;;;;;;3.53;1.30;;;15.40;99.90;;;;;;5054885;28;20177;-75
2022/12/31 12:15:09;;;;;;;2.50;1.30;;;15.30;99.90;;;;;;5037565;28;20166;-75
2022/12/31 12:17:35;;;;;;;2.43;1.40;;;15.30;99.90;;;;;;5094309;22;20300;-80
2022/12/31 12:20:17;;;;;;;1.93;1.30;;;15.30;99.90;;;;;;5047236;28;20173;-79
2022/12/31 12:22:55;;;;;;;2.03;1.40;;;15.30;99.90;;;;;;5036703;28;20186;-79
2022/12/31 12:25:24;;;;;;;1.93;1.33;;;15.30;99.90;;;;;;5036928;28;20176;-79
2022/12/31 12:27:50;;;;;;;2.40;1.33;;;15.40;99.90;;;;;;5048762;28;20194;-79
2022/12/31 12:30:19;;;;;;;3.00;1.20;;;15.40;99.90;;;;;;5046541;28;20253;-79
2022/12/31 12:33:16;;;;;;;2.20;1.40;;;15.40;99.90;;;;;;5054304;28;20174;-79
2022/12/31 12:35:42;;;;;;;2.17;1.57;;;15.40;99.90;;;;;;5035723;28;20182;-79
2022/12/31 12:38:15;;;;;;;3.03;1.30;;;15.40;99.90;;;;;;5032490;28;20249;-79
2022/12/31 12:40:41;;;;;;;1.93;1.30;;;15.40;99.90;;;;;;5024861;28;20233;-80
2022/12/31 12:43:25;;;;;;;2.70;1.17;;;15.50;99.90;;;;;;5035530;28;20166;-79
2022/12/31 12:45:53;;;;;;;2.60;1.37;;;15.50;99.90;;;;;;5036566;28;20698;-79
2022/12/31 12:48:40;;;;;;;2.37;1.40;;;15.50;99.90;;;;;;5036105;28;20189;-79
2022/12/31 12:51:12;;;;;;;2.97;1.30;;;15.60;99.90;;;;;;5054296;28;20174;-79
2022/12/31 12:53:44;;;;;;;2.03;1.30;;;15.70;99.90;;;;;;5053677;28;20173;-80
2022/12/31 12:56:18;;;;;;;6.27;3.83;;;15.80;99.90;;;;;;5035938;28;20203;-79
2022/12/31 12:59:33;;;;;;;1.67;1.37;;;15.80;99.90;;;;;;5036606;28;20201;-79
2022/12/31 13:02:11;;;;;;;2.50;1.77;;;15.80;99.90;;;;;;5036172;28;20201;-79
2022/12/31 13:04:58;;;;;;;2.63;1.63;;;15.80;99.90;;;;;;5053338;28;20197;-80
2022/12/31 13:07:42;;;;;;;2.20;1.40;;;15.70;99.90;;;;;;5054114;28;20212;-79
2022/12/31 13:10:57;;;;;;;1.80;1.40;;;15.70;99.90;;;;;;5036335;28;20177;-79
2022/12/31 13:13:25;;;;;;;2.00;1.30;;;15.80;99.90;;;;;;5035759;28;20178;-79
2022/12/31 13:16:17;;;;;;;2.67;1.27;;;15.80;99.90;;;;;;5053976;28;20170;-79
2022/12/31 13:18:53;;;;;;;2.03;1.43;;;15.80;99.90;;;;;;5035474;28;20296;-79
2022/12/31 13:21:47;;;;;;;2.77;1.50;;;15.80;99.90;;;;;;5036130;28;20201;-79
2022/12/31 13:24:28;;;;;;;2.87;1.60;;;15.90;99.90;;;;;;5035616;28;20213;-79
2022/12/31 13:27:30;;;;;;;2.20;1.30;;;16.00;99.90;;;;;;5035577;28;20196;-79
2022/12/31 13:30:00;;;;;;;1.83;1.30;;;16.10;99.90;;;;;;5035936;28;20173;-79
2022/12/31 13:32:44;;;;;;;2.37;1.30;;;16.10;99.90;;;;;;5053009;28;20258;-79
2022/12/31 13:35:41;;;;;;;2.40;1.23;;;16.10;99.90;;;;;;5053420;28;20169;-79